Time;durP1;ratioP1;P1;durP2;ratioP2;P2;SDS_P1;SDS_P2;PMS_P1;PMS_P2;Temp;Humidity;BMP_temperature;BMP_pressure;BME280_temperature;BME280_humidity;BME280_pressure;Samples;Min_cycle;Max_cycle;Signal;HPM_P1;HPM_P2
2021/05/11 00:02:46;;;;;;;;;;;;;;;;;;;;;
2021/05/11 00:08:45;;;;;;;8.30;5.10;;;;;;;14.17;50.83;98378.91;259053;1111;22854;-70
2021/05/11 00:15:24;;;;;;;;;;;;;;;;;;;;;
2021/05/11 00:27:27;;;;;;;8.90;5.80;;;;;;;13.85;52.01;98359.50;257380;1114;22923;-70
2021/05/11 00:33:29;;;;;;;10.30;6.10;;;;;;;13.79;52.56;98355.38;258214;1108;22819;-71
2021/05/11 00:39:11;;;;;;;7.90;5.50;;;;;;;13.81;52.83;98347.78;258111;1114;22815;-71
2021/05/11 00:44:32;;;;;;;8.50;5.20;;;;;;;13.82;52.72;98345.88;258211;1113;22912;-71
2021/05/11 00:50:07;;;;;;;6.85;4.45;;;;;;;13.79;53.12;98333.84;258589;1106;22833;-70
2021/05/11 00:55:57;;;;;;;6.73;4.68;;;;;;;13.70;53.40;98330.39;259181;1105;22852;-70
2021/05/11 01:02:13;;;;;;;9.35;5.10;;;;;;;13.62;53.58;98329.28;259037;1111;22784;-71
2021/05/11 01:07:50;;;;;;;5.55;4.05;;;;;;;13.56;54.08;98325.19;259105;1110;22782;-71
2021/05/11 01:13:27;;;;;;;6.23;3.90;;;;;;;13.59;54.14;98316.47;259061;1103;22955;-71
2021/05/11 01:19:20;;;;;;;5.37;3.60;;;;;;;13.60;53.94;98304.60;259015;1106;22844;-71
2021/05/11 01:55:48;;;;;;;3.30;2.35;;;;;;;13.89;53.86;98278.86;259178;1103;22782;-70
2021/05/11 02:27:24;;;;;;;5.50;2.30;;;;;;;15.15;52.12;98262.14;259103;1103;25903;-70
2021/05/11 02:32:46;;;;;;;4.53;2.57;;;;;;;15.23;51.71;98261.27;259284;1111;22867;-70
2021/05/11 02:38:14;;;;;;;5.10;2.80;;;;;;;15.03;51.77;98259.38;259136;1111;22873;-70
2021/05/11 02:44:00;;;;;;;;;;;;;;;14.81;51.76;98250.49;258361;1111;22958;-71
2021/05/11 02:49:38;;;;;;;10.57;4.27;;;;;;;14.61;52.24;98256.66;258996;1103;21474;-71
2021/05/11 02:55:29;;;;;;;;;;;;;;;;;;;;;
2021/05/11 03:01:56;;;;;;;4.73;3.03;;;;;;;14.36;52.89;98248.40;259158;1110;22952;-70
2021/05/11 03:07:53;;;;;;;;;;;;;;;;;;;;;
2021/05/11 03:14:32;;;;;;;;;;;;;;;;;;;;;
2021/05/11 03:21:30;;;;;;;4.80;3.70;;;;;;;13.97;53.90;98248.42;258838;1111;22887;-70
2021/05/11 03:27:21;;;;;;;5.70;3.50;;;;;;;13.85;54.52;98248.30;259070;1105;25913;-70
2021/05/11 03:33:05;;;;;;;6.87;3.70;;;;;;;13.83;55.26;98242.47;258957;1111;22991;-70
2021/05/11 03:38:51;;;;;;;6.80;3.70;;;;;;;13.94;55.42;98243.69;259185;1111;22867;-70
2021/05/11 03:45:12;;;;;;;6.53;3.80;;;;;;;14.16;55.32;98234.56;259224;1106;22896;-70
2021/05/11 03:50:22;;;;;;;5.80;3.85;;;;;;;14.26;55.52;98236.09;259125;1111;24573;-70
2021/05/11 03:55:55;;;;;;;5.83;3.88;;;;;;;14.29;55.36;98230.05;259148;1103;22782;-70
2021/05/11 04:01:36;;;;;;;4.85;4.15;;;;;;;14.22;55.73;98221.69;259107;1110;22812;-70
2021/05/11 04:07:14;;;;;;;6.40;4.05;;;;;;;14.13;56.06;98219.05;259117;1103;26011;-71
2021/05/11 04:18:14;;;;;;;7.15;5.05;;;;;;;14.06;57.22;98216.09;259115;1103;22803;-70
2021/05/11 04:23:36;;;;;;;6.15;4.00;;;;;;;14.13;57.29;98212.86;259210;1111;22854;-71
2021/05/11 04:29:31;;;;;;;9.57;4.90;;;;;;;14.28;57.24;98214.21;259149;1103;24195;-70
2021/05/11 04:41:57;;;;;;;6.70;4.90;;;;;;;14.74;57.70;98211.71;259119;1103;27629;-70
2021/05/11 04:53:24;;;;;;;;;;;;;;;;;;;;;
2021/05/11 04:59:28;;;;;;;12.55;5.40;;;;;;;15.38;57.83;98215.89;259195;1103;26433;-70
2021/05/11 05:06:01;;;;;;;7.00;4.03;;;;;;;15.68;57.71;98207.61;259147;1110;22809;-70
2021/05/11 05:12:41;;;;;;;6.77;4.53;;;;;;;16.06;57.65;98210.03;259118;1103;25912;-71
2021/05/11 05:19:11;;;;;;;;;;;;;;;;;;;;;
2021/05/11 05:32:43;;;;;;;6.70;4.05;;;;;;;17.24;56.79;98184.03;258975;1105;22803;-71
2021/05/11 05:38:58;;;;;;;7.73;4.10;;;;;;;17.58;56.01;98179.85;259319;1111;22812;-70
2021/05/11 05:45:22;;;;;;;;;;;;;;;;;;;;;
2021/05/11 05:58:06;;;;;;;6.70;4.15;;;;;;;18.57;55.17;98189.09;257639;1106;22809;-70
2021/05/11 06:04:14;;;;;;;5.25;3.75;;;;;;;18.87;55.06;98186.61;259599;1103;22863;-70
2021/05/11 06:10:25;;;;;;;6.47;2.97;;;;;;;19.23;54.47;98171.00;259518;1103;26009;-70
2021/05/11 06:23:23;;;;;;;;;;;;;;;;;;;;;
2021/05/11 06:29:58;;;;;;;6.95;2.65;;;;;;;20.75;49.73;98167.84;259316;1105;27172;-70
2021/05/11 06:36:46;;;;;;;4.35;2.75;;;;;;;21.14;49.39;98164.75;259174;1111;22837;-70
2021/05/11 06:43:41;;;;;;;5.60;3.35;;;;;;;21.35;49.38;98170.42;259683;1103;26283;-69
2021/05/11 06:55:20;;;;;;;4.63;3.68;;;;;;;21.54;49.30;98165.94;259383;1103;22810;-70
2021/05/11 07:01:18;;;;;;;;;;;;;;;;;;;;;
2021/05/11 07:07:03;;;;;;;5.93;3.10;;;;;;;22.08;47.50;98154.64;259762;1108;22960;-70
2021/05/11 07:13:37;;;;;;;4.68;3.05;;;;;;;22.46;46.00;98160.73;259333;1103;22804;-69
2021/05/11 07:19:28;;;;;;;6.27;2.87;;;;;;;22.82;45.35;98160.86;259464;1103;22826;-69
2021/05/11 07:25:37;;;;;;;4.98;2.80;;;;;;;23.13;44.06;98159.42;259432;1103;22864;-70
2021/05/11 07:31:17;;;;;;;8.53;2.70;;;;;;;23.44;43.75;98159.08;259582;1103;22814;-70
2021/05/11 07:36:51;;;;;;;3.95;2.60;;;;;;;23.69;42.96;98159.08;259404;1103;26236;-70
2021/05/11 07:42:58;;;;;;;4.23;2.63;;;;;;;23.94;42.85;98148.15;259433;1103;25897;-70
2021/05/11 07:48:41;;;;;;;3.20;2.85;;;;;;;24.17;42.37;98146.92;259341;1103;22787;-69
2021/05/11 08:17:37;;;;;;;2.63;1.55;;;;;;;25.51;39.91;98130.63;259339;1103;22800;-70
2021/05/11 08:23:28;;;;;;;4.53;2.05;;;;;;;25.75;39.37;98137.83;259398;1103;22786;-70
2021/05/11 08:29:15;;;;;;;4.80;1.85;;;;;;;25.92;38.17;98133.36;259222;1110;25440;-71
2021/05/11 08:34:47;;;;;;;2.75;1.85;;;;;;;26.10;37.94;98135.95;259344;1103;22794;-70
2021/05/11 08:40:14;;;;;;;2.75;2.10;;;;;;;26.24;37.53;98131.50;259315;1103;22985;-70
2021/05/11 08:45:44;;;;;;;4.13;2.10;;;;;;;26.38;37.50;98147.03;259524;1111;23232;-70
2021/05/11 09:28:49;;;;;;;6.80;2.40;;;;;;;27.43;35.43;98149.20;257732;1103;24417;-68
2021/05/11 09:34:45;;;;;;;3.10;1.87;;;;;;;27.59;34.34;98137.53;257387;1106;22795;-68
2021/05/11 09:45:51;;;;;;;2.88;2.03;;;;;;;27.85;34.59;98135.91;257179;1103;22869;-68
2021/05/11 10:10:17;;;;;;;3.23;2.30;;;;;;;28.11;32.32;98112.27;259041;1103;22958;-68
2021/05/11 10:51:22;;;;;;;5.47;2.90;;;;;;;29.23;30.66;98098.08;257958;1111;22819;-69
2021/05/11 10:57:02;;;;;;;3.33;2.10;;;;;;;29.38;30.61;98093.02;259610;1103;26165;-70
2021/05/11 11:03:43;;;;;;;4.55;1.90;;;;;;;29.49;29.71;98094.32;259544;1103;22864;-70
2021/05/11 11:10:07;;;;;;;5.23;2.78;;;;;;;29.60;29.38;98094.03;259405;1103;22847;-68
2021/05/11 11:16:36;;;;;;;3.05;1.80;;;;;;;29.63;29.47;98092.39;257972;1111;23025;-69
2021/05/11 11:29:47;;;;;;;;;;;;;;;;;;;;;
2021/05/11 11:42:50;;;;;;;;;;;;;;;;;;;;;
2021/05/11 11:49:01;;;;;;;6.65;2.80;;;;;;;29.88;28.07;98064.16;257914;1103;22842;-68
2021/05/11 12:02:50;;;;;;;;;;;;;;;;;;;;;
2021/05/11 12:09:32;;;;;;;;;;;;;;;;;;;;;
2021/05/11 12:29:35;;;;;;;4.47;2.53;;;;;;;30.29;29.01;98018.42;257912;1111;24313;-67
2021/05/11 12:35:41;;;;;;;4.60;2.00;;;;;;;30.31;28.60;98015.98;258360;1108;24615;-68
2021/05/11 12:42:32;;;;;;;3.48;1.88;;;;;;;30.39;28.09;98008.27;258154;1106;22808;-67
2021/05/11 12:48:37;;;;;;;2.00;1.90;;;;;;;30.34;28.19;97995.76;258002;1106;26591;-68
2021/05/11 12:55:14;;;;;;;4.57;2.13;;;;;;;30.40;27.71;97995.22;257920;1110;22958;-67
2021/05/11 13:23:03;;;;;;;2.35;1.90;;;;;;;30.36;27.78;97962.16;258303;1109;22796;-66
2021/05/11 13:35:55;;;;;;;8.08;2.75;;;;;;;30.42;25.85;97940.31;257763;1103;22850;-66
2021/05/11 13:49:29;;;;;;;3.13;2.00;;;;;;;30.45;26.98;97936.69;257999;1103;22850;-67
2021/05/11 13:55:32;;;;;;;7.05;2.25;;;;;;;30.48;27.50;97917.22;258045;1103;22779;-68
2021/05/11 14:01:39;;;;;;;3.63;1.90;;;;;;;30.55;26.97;97916.98;257571;1103;24413;-68
2021/05/11 14:07:44;;;;;;;5.40;2.18;;;;;;;30.63;27.34;97923.06;257845;1103;22784;-69
2021/05/11 14:13:28;;;;;;;2.60;1.83;;;;;;;30.71;27.84;97901.47;258394;1108;22778;-68
2021/05/11 14:19:13;;;;;;;;;;;;;;;;;;;;;
2021/05/11 14:25:20;;;;;;;;;;;;;;;;;;;;;
2021/05/11 14:31:44;;;;;;;3.40;1.90;;;;;;;30.72;27.52;97903.03;257825;1103;25931;-69
2021/05/11 14:37:57;;;;;;;;;;;;;;;;;;;;;
2021/05/11 14:45:02;;;;;;;;;;;;;;;;;;;;;
2021/05/11 14:51:31;;;;;;;2.60;1.90;;;;;;;30.53;26.45;97886.27;257737;1103;26385;-68
2021/05/11 14:57:09;;;;;;;2.55;2.35;;;;;;;30.52;26.76;97883.95;258095;1103;22862;-69
2021/05/11 15:03:05;;;;;;;3.63;2.43;;;;;;;30.51;27.29;97888.72;258998;1103;22947;-68
2021/05/11 15:09:31;;;;;;;5.08;3.13;;;;;;;30.41;25.75;97877.98;258965;1103;22768;-68
2021/05/11 15:15:04;;;;;;;;;;;;;;;30.32;26.14;97873.14;258369;1106;22952;-68
2021/05/11 15:20:56;;;;;;;;;;;;;;;;;;;;;
2021/05/11 15:26:13;;;;;;;3.55;2.10;;;;;;;30.18;25.50;97864.08;258309;1111;23440;-68
2021/05/11 15:32:08;;;;;;;;;;;;;;;;;;;;;
2021/05/11 15:38:42;;;;;;;;;;;;;;;;;;;;;
2021/05/11 15:45:27;;;;;;;4.08;2.23;;;;;;;29.80;25.87;97845.52;258325;1103;22867;-68
2021/05/11 15:52:10;;;;;;;;;;;;;;;;;;;;;
2021/05/11 15:58:30;;;;;;;4.20;3.55;;;;;;;29.70;26.45;97833.59;258273;1105;23041;-68
2021/05/11 16:11:57;;;;;;;;;;;;;;;;;;;;;
2021/05/11 16:19:09;;;;;;;4.30;2.45;;;;;;;29.43;26.81;97820.19;258386;1110;22884;-68
2021/05/11 16:24:56;;;;;;;4.45;3.80;;;;;;;29.28;26.95;97819.84;258260;1111;22795;-69
2021/05/11 16:30:36;;;;;;;3.60;2.40;;;;;;;29.18;27.05;97810.64;258439;1101;22806;-69
2021/05/11 16:36:07;;;;;;;3.98;2.53;;;;;;;29.07;27.20;97810.14;258522;1103;22786;-69
2021/05/11 16:41:11;;;;;;;3.20;2.53;;;;;;;28.89;27.07;97810.66;258526;1110;25482;-68
2021/05/11 16:46:22;;;;;;;3.78;2.40;;;;;;;28.72;27.54;97815.42;258436;1103;24240;-68
2021/05/11 16:52:12;;;;;;;3.05;2.73;;;;;;;28.62;28.27;97817.25;258419;1110;22785;-68
2021/05/11 16:57:49;;;;;;;3.30;2.60;;;;;;;28.54;28.47;97826.88;258347;1106;22997;-69
2021/05/11 17:03:39;;;;;;;4.25;3.85;;;;;;;28.42;28.16;97822.09;258555;1105;25739;-67
2021/05/11 17:09:08;;;;;;;4.67;3.20;;;;;;;28.32;28.63;97829.41;258434;1103;22788;-68
2021/05/11 17:15:21;;;;;;;3.68;3.08;;;;;;;28.19;28.92;97821.05;258481;1111;22816;-68
2021/05/11 17:22:08;;;;;;;5.00;3.30;;;;;;;28.72;29.41;97817.41;258066;1111;22894;-68
2021/05/11 17:28:43;;;;;;;5.03;2.93;;;;;;;28.72;28.85;97820.17;258450;1103;22861;-68
2021/05/11 17:42:22;;;;;;;4.93;3.30;;;;;;;27.43;29.61;97821.95;258344;1104;22767;-68
2021/05/11 17:49:05;;;;;;;3.60;3.30;;;;;;;26.83;30.07;97821.93;258164;1111;22796;-68
2021/05/11 17:55:43;;;;;;;3.53;3.23;;;;;;;26.25;30.49;97814.66;258395;1110;22792;-68
2021/05/11 18:02:10;;;;;;;5.58;3.40;;;;;;;25.79;31.47;97823.14;258301;1103;22785;-69
2021/05/11 18:22:31;;;;;;;4.87;3.90;;;;;;;24.39;33.29;97808.27;258551;1103;22954;-67
2021/05/11 18:29:19;;;;;;;4.80;3.95;;;;;;;24.00;33.77;97812.86;258149;1103;22853;-68
2021/05/11 18:34:49;;;;;;;5.83;3.77;;;;;;;23.64;34.20;97815.78;258482;1111;22791;-69
2021/05/11 18:53:52;;;;;;;4.83;3.85;;;;;;;22.79;35.67;97831.30;258170;1110;22810;-69
2021/05/11 19:07:33;;;;;;;;;;;;;;;;;;;;;
2021/05/11 19:14:00;;;;;;;5.90;3.90;;;;;;;22.07;36.89;97834.03;258311;1103;27323;-68
2021/05/11 19:20:24;;;;;;;;;;;;;;;;;;;;;
2021/05/11 19:27:25;;;;;;;5.33;3.43;;;;;;;21.67;37.92;97839.39;258509;1103;22848;-66
2021/05/11 19:33:42;;;;;;;5.83;3.70;;;;;;;21.62;38.03;97853.41;258535;1103;22952;-68
2021/05/11 19:47:01;;;;;;;;;;;;;;;;;;;;;
2021/05/11 19:53:02;;;;;;;3.68;3.13;;;;;;;21.26;37.84;97854.00;258522;1111;22806;-68
2021/05/11 19:59:35;;;;;;;2.80;2.50;;;;;;;21.00;38.21;97855.83;258370;1103;22883;-68
2021/05/11 20:06:07;;;;;;;3.83;2.70;;;;;;;20.74;38.45;97858.77;258346;1103;22820;-68
2021/05/11 20:12:38;;;;;;;4.20;2.40;;;;;;;20.52;38.75;97858.57;258552;1110;22809;-68
2021/05/11 20:19:16;;;;;;;;;;;;;;;;;;;;;
2021/05/11 20:25:38;;;;;;;;;;;;;;;;;;;;;
2021/05/11 20:38:59;;;;;;;4.13;3.00;;;;;;;19.75;39.65;97856.28;258500;1103;26040;-68
2021/05/11 20:45:49;;;;;;;5.85;2.75;;;;;;;19.61;39.66;97853.41;258420;1111;23778;-67
2021/05/11 20:52:19;;;;;;;3.10;2.50;;;;;;;19.48;39.75;97853.66;258407;1111;24461;-68
2021/05/11 21:05:40;;;;;;;5.80;2.70;;;;;;;19.43;40.56;97850.48;258138;1103;22808;-67
2021/05/11 21:11:34;;;;;;;3.20;2.20;;;;;;;19.56;40.03;97846.39;258497;1111;22858;-69
2021/05/11 21:17:19;;;;;;;4.80;1.85;;;;;;;19.64;40.07;97848.03;258407;1103;24727;-69
2021/05/11 21:23:52;;;;;;;3.55;1.50;;;;;;;19.72;40.00;97848.11;258336;1111;22793;-69
2021/05/11 21:30:12;;;;;;;2.20;1.67;;;;;;;19.82;40.13;97842.02;258213;1106;22777;-68
2021/05/11 21:35:17;;;;;;;1.90;1.50;;;;;;;19.86;40.33;97842.84;258367;1104;22860;-68
2021/05/11 21:40:38;;;;;;;4.40;1.70;;;;;;;19.93;39.75;97848.34;258332;1103;22779;-68
2021/05/11 21:46:11;;;;;;;1.50;1.40;;;;;;;19.98;39.87;97845.30;258258;1103;22809;-68
2021/05/11 21:51:50;;;;;;;5.20;1.90;;;;;;;19.97;39.66;97838.29;258349;1103;22802;-68
2021/05/11 21:57:15;;;;;;;1.75;1.55;;;;;;;19.97;39.73;97837.52;258340;1110;22848;-69
2021/05/11 22:09:28;;;;;;;3.25;1.30;;;;;;;19.77;39.69;97831.48;258240;1103;22864;-67
2021/05/11 22:14:44;;;;;;;3.00;1.67;;;;;;;19.63;40.13;97834.83;258379;1103;25584;-68
2021/05/11 22:21:07;;;;;;;3.00;2.00;;;;;;;19.52;39.74;97840.13;258539;1105;22878;-68
2021/05/11 22:27:12;;;;;;;;;;;;;;;;;;;;;
2021/05/11 22:33:13;;;;;;;;;;;;;;;;;;;;;
2021/05/11 22:38:59;;;;;;;2.10;1.70;;;;;;;19.25;40.55;97837.48;258584;1111;22879;-70
2021/05/11 22:44:47;;;;;;;6.40;1.90;;;;;;;19.16;40.50;97836.97;258468;1103;24413;-67
2021/05/11 22:51:22;;;;;;;;;;;;;;;;;;;;;
2021/05/11 22:57:29;;;;;;;3.90;2.20;;;;;;;18.90;40.95;97825.02;258240;1105;27192;-67
2021/05/11 23:02:37;;;;;;;4.50;2.70;;;;;;;18.72;41.39;97845.63;258422;1103;25900;-68
2021/05/11 23:08:09;;;;;;;2.50;2.30;;;;;;;18.47;42.08;97843.34;258367;1111;22869;-69
2021/05/11 23:13:49;;;;;;;8.30;4.20;;;;;;;18.19;42.63;97832.78;258510;1111;22855;-68
2021/05/11 23:19:28;;;;;;;4.35;2.85;;;;;;;17.92;43.06;97840.85;258429;1111;24509;-68
2021/05/11 23:25:04;;;;;;;2.60;1.95;;;;;;;17.62;43.87;97839.51;258601;1106;22786;-69
2021/05/11 23:30:57;;;;;;;4.60;2.50;;;;;;;17.36;44.49;97832.06;258523;1106;22791;-68
2021/05/11 23:43:30;;;;;;;3.90;2.80;;;;;;;16.95;45.34;97825.40;258289;1110;22847;-68
2021/05/11 23:49:54;;;;;;;5.10;3.20;;;;;;;16.82;45.37;97828.19;258493;1106;22958;-69
2021/05/11 23:56:09;;;;;;;;;;;;;;;;;;;;;
